sensor_id;sensor_type;location;lat;lon;timestamp;P1;durP1;ratioP1;P2;durP2;ratioP2
16642;SDS011;8435;52.184;5.406;2022-10-13T00:01:59;10.13;;;8.30;;
16642;SDS011;8435;52.184;5.406;2022-10-13T00:04:26;11.47;;;8.33;;
16642;SDS011;8435;52.184;5.406;2022-10-13T00:06:52;9.73;;;7.67;;
16642;SDS011;8435;52.184;5.406;2022-10-13T00:09:19;8.90;;;7.67;;
16642;SDS011;8435;52.184;5.406;2022-10-13T00:11:47;11.17;;;8.57;;
16642;SDS011;8435;52.184;5.406;2022-10-13T00:14:14;14.47;;;8.57;;
16642;SDS011;8435;52.184;5.406;2022-10-13T00:16:41;10.53;;;8.40;;
16642;SDS011;8435;52.184;5.406;2022-10-13T00:19:08;9.50;;;8.13;;
16642;SDS011;8435;52.184;5.406;2022-10-13T00:21:35;9.33;;;8.17;;
16642;SDS011;8435;52.184;5.406;2022-10-13T00:24:02;10.63;;;7.57;;
16642;SDS011;8435;52.184;5.406;2022-10-13T00:26:29;9.97;;;7.93;;
16642;SDS011;8435;52.184;5.406;2022-10-13T00:28:57;11.27;;;9.00;;
16642;SDS011;8435;52.184;5.406;2022-10-13T00:31:25;9.80;;;8.07;;
16642;SDS011;8435;52.184;5.406;2022-10-13T00:33:53;10.43;;;8.47;;
16642;SDS011;8435;52.184;5.406;2022-10-13T00:36:20;12.53;;;9.17;;
16642;SDS011;8435;52.184;5.406;2022-10-13T00:38:48;11.30;;;9.30;;
16642;SDS011;8435;52.184;5.406;2022-10-13T00:41:15;10.97;;;8.77;;
16642;SDS011;8435;52.184;5.406;2022-10-13T00:43:47;9.73;;;8.20;;
16642;SDS011;8435;52.184;5.406;2022-10-13T00:46:17;14.47;;;8.83;;
16642;SDS011;8435;52.184;5.406;2022-10-13T00:48:45;10.57;;;8.97;;
16642;SDS011;8435;52.184;5.406;2022-10-13T00:51:14;12.00;;;9.00;;
16642;SDS011;8435;52.184;5.406;2022-10-13T00:53:43;12.43;;;8.60;;
16642;SDS011;8435;52.184;5.406;2022-10-13T00:56:12;9.87;;;8.53;;
16642;SDS011;8435;52.184;5.406;2022-10-13T00:58:41;11.53;;;8.87;;
16642;SDS011;8435;52.184;5.406;2022-10-13T01:01:10;11.83;;;8.93;;
16642;SDS011;8435;52.184;5.406;2022-10-13T01:03:38;10.63;;;8.63;;
16642;SDS011;8435;52.184;5.406;2022-10-13T01:06:06;10.43;;;7.77;;
16642;SDS011;8435;52.184;5.406;2022-10-13T01:08:34;9.90;;;8.67;;
16642;SDS011;8435;52.184;5.406;2022-10-13T01:11:04;10.53;;;8.73;;
16642;SDS011;8435;52.184;5.406;2022-10-13T01:13:43;11.30;;;8.57;;
16642;SDS011;8435;52.184;5.406;2022-10-13T01:16:17;10.43;;;8.60;;
16642;SDS011;8435;52.184;5.406;2022-10-13T01:18:53;12.00;;;8.70;;
16642;SDS011;8435;52.184;5.406;2022-10-13T01:21:27;10.23;;;8.60;;
16642;SDS011;8435;52.184;5.406;2022-10-13T01:24:05;10.90;;;8.80;;
16642;SDS011;8435;52.184;5.406;2022-10-13T01:27:12;11.00;;;8.90;;
16642;SDS011;8435;52.184;5.406;2022-10-13T01:30:09;10.50;;;8.43;;
16642;SDS011;8435;52.184;5.406;2022-10-13T01:32:42;11.43;;;8.73;;
16642;SDS011;8435;52.184;5.406;2022-10-13T01:35:28;11.20;;;7.90;;
16642;SDS011;8435;52.184;5.406;2022-10-13T01:38:25;10.97;;;8.70;;
16642;SDS011;8435;52.184;5.406;2022-10-13T01:41:00;9.53;;;8.20;;
16642;SDS011;8435;52.184;5.406;2022-10-13T01:43:36;9.60;;;8.30;;
16642;SDS011;8435;52.184;5.406;2022-10-13T01:46:08;11.93;;;9.10;;
16642;SDS011;8435;52.184;5.406;2022-10-13T01:48:41;11.10;;;8.30;;
16642;SDS011;8435;52.184;5.406;2022-10-13T01:51:17;9.60;;;8.33;;
16642;SDS011;8435;52.184;5.406;2022-10-13T01:53:53;9.77;;;8.07;;
16642;SDS011;8435;52.184;5.406;2022-10-13T01:56:21;12.00;;;8.80;;
16642;SDS011;8435;52.184;5.406;2022-10-13T01:58:51;9.37;;;8.37;;
16642;SDS011;8435;52.184;5.406;2022-10-13T02:04:33;11.27;;;8.50;;
16642;SDS011;8435;52.184;5.406;2022-10-13T02:07:22;9.67;;;8.20;;
16642;SDS011;8435;52.184;5.406;2022-10-13T02:09:58;9.60;;;8.20;;
16642;SDS011;8435;52.184;5.406;2022-10-13T02:12:58;11.50;;;8.40;;
16642;SDS011;8435;52.184;5.406;2022-10-13T02:15:51;12.17;;;8.50;;
16642;SDS011;8435;52.184;5.406;2022-10-13T02:18:24;10.77;;;8.40;;
16642;SDS011;8435;52.184;5.406;2022-10-13T02:20:54;11.00;;;8.37;;
16642;SDS011;8435;52.184;5.406;2022-10-13T02:23:25;9.57;;;8.67;;
16642;SDS011;8435;52.184;5.406;2022-10-13T02:26:03;12.00;;;9.57;;
16642;SDS011;8435;52.184;5.406;2022-10-13T02:28:32;11.00;;;7.57;;
16642;SDS011;8435;52.184;5.406;2022-10-13T02:31:09;10.97;;;8.53;;
16642;SDS011;8435;52.184;5.406;2022-10-13T02:33:46;9.00;;;8.10;;
16642;SDS011;8435;52.184;5.406;2022-10-13T02:36:16;9.50;;;8.10;;
16642;SDS011;8435;52.184;5.406;2022-10-13T02:38:46;11.27;;;8.47;;
16642;SDS011;8435;52.184;5.406;2022-10-13T02:41:19;12.53;;;8.73;;
16642;SDS011;8435;52.184;5.406;2022-10-13T02:43:46;10.27;;;8.70;;
16642;SDS011;8435;52.184;5.406;2022-10-13T02:46:17;12.60;;;8.60;;
16642;SDS011;8435;52.184;5.406;2022-10-13T02:48:52;11.73;;;8.93;;
16642;SDS011;8435;52.184;5.406;2022-10-13T02:51:28;9.73;;;8.40;;
16642;SDS011;8435;52.184;5.406;2022-10-13T02:54:01;12.07;;;8.90;;
16642;SDS011;8435;52.184;5.406;2022-10-13T02:56:30;10.07;;;8.70;;
16642;SDS011;8435;52.184;5.406;2022-10-13T02:58:57;11.13;;;8.90;;
16642;SDS011;8435;52.184;5.406;2022-10-13T03:01:24;9.67;;;8.33;;
16642;SDS011;8435;52.184;5.406;2022-10-13T03:03:55;12.10;;;8.93;;
16642;SDS011;8435;52.184;5.406;2022-10-13T03:06:22;9.23;;;8.33;;
16642;SDS011;8435;52.184;5.406;2022-10-13T03:08:52;10.47;;;8.57;;
16642;SDS011;8435;52.184;5.406;2022-10-13T03:11:19;13.10;;;9.03;;
16642;SDS011;8435;52.184;5.406;2022-10-13T03:13:49;9.53;;;8.53;;
16642;SDS011;8435;52.184;5.406;2022-10-13T03:16:16;9.00;;;8.10;;
16642;SDS011;8435;52.184;5.406;2022-10-13T03:18:58;8.77;;;7.77;;
16642;SDS011;8435;52.184;5.406;2022-10-13T03:24:11;9.40;;;8.40;;
16642;SDS011;8435;52.184;5.406;2022-10-13T03:26:49;10.07;;;7.80;;
16642;SDS011;8435;52.184;5.406;2022-10-13T03:29:18;10.83;;;8.47;;
16642;SDS011;8435;52.184;5.406;2022-10-13T03:31:49;9.13;;;8.23;;
16642;SDS011;8435;52.184;5.406;2022-10-13T03:34:20;10.60;;;9.43;;
16642;SDS011;8435;52.184;5.406;2022-10-13T03:36:49;9.97;;;8.97;;
16642;SDS011;8435;52.184;5.406;2022-10-13T03:39:21;9.63;;;8.73;;
16642;SDS011;8435;52.184;5.406;2022-10-13T03:41:55;11.30;;;8.73;;
16642;SDS011;8435;52.184;5.406;2022-10-13T03:44:31;9.70;;;8.53;;
16642;SDS011;8435;52.184;5.406;2022-10-13T03:46:58;10.17;;;8.30;;
16642;SDS011;8435;52.184;5.406;2022-10-13T03:49:34;11.47;;;8.70;;
16642;SDS011;8435;52.184;5.406;2022-10-13T03:52:03;10.77;;;8.57;;
16642;SDS011;8435;52.184;5.406;2022-10-13T03:54:30;10.10;;;9.10;;
16642;SDS011;8435;52.184;5.406;2022-10-13T03:56:57;12.57;;;8.97;;
16642;SDS011;8435;52.184;5.406;2022-10-13T03:59:27;11.30;;;9.17;;
16642;SDS011;8435;52.184;5.406;2022-10-13T04:01:55;10.77;;;9.47;;
16642;SDS011;8435;52.184;5.406;2022-10-13T04:04:29;11.07;;;8.47;;
16642;SDS011;8435;52.184;5.406;2022-10-13T04:06:58;10.30;;;9.17;;
16642;SDS011;8435;52.184;5.406;2022-10-13T04:09:25;9.37;;;8.37;;
16642;SDS011;8435;52.184;5.406;2022-10-13T04:11:52;9.63;;;8.63;;
16642;SDS011;8435;52.184;5.406;2022-10-13T04:14:19;9.97;;;8.97;;
16642;SDS011;8435;52.184;5.406;2022-10-13T04:16:46;10.27;;;8.97;;
16642;SDS011;8435;52.184;5.406;2022-10-13T04:19:14;9.80;;;8.57;;
16642;SDS011;8435;52.184;5.406;2022-10-13T04:21:41;12.67;;;9.20;;
16642;SDS011;8435;52.184;5.406;2022-10-13T04:24:10;9.83;;;8.50;;
16642;SDS011;8435;52.184;5.406;2022-10-13T04:26:38;10.30;;;9.23;;
16642;SDS011;8435;52.184;5.406;2022-10-13T04:29:06;10.90;;;9.33;;
16642;SDS011;8435;52.184;5.406;2022-10-13T04:31:34;11.40;;;8.87;;
16642;SDS011;8435;52.184;5.406;2022-10-13T04:34:01;11.77;;;8.70;;
16642;SDS011;8435;52.184;5.406;2022-10-13T04:36:29;10.03;;;8.43;;
16642;SDS011;8435;52.184;5.406;2022-10-13T04:38:56;11.23;;;9.17;;
16642;SDS011;8435;52.184;5.406;2022-10-13T04:41:24;10.60;;;8.40;;
16642;SDS011;8435;52.184;5.406;2022-10-13T04:43:51;10.63;;;9.13;;
16642;SDS011;8435;52.184;5.406;2022-10-13T04:46:25;10.33;;;8.97;;
16642;SDS011;8435;52.184;5.406;2022-10-13T04:48:55;11.13;;;8.97;;
16642;SDS011;8435;52.184;5.406;2022-10-13T04:51:23;10.53;;;9.40;;
16642;SDS011;8435;52.184;5.406;2022-10-13T04:53:54;12.17;;;9.37;;
16642;SDS011;8435;52.184;5.406;2022-10-13T04:56:22;11.30;;;9.10;;
16642;SDS011;8435;52.184;5.406;2022-10-13T04:58:51;10.17;;;9.17;;
16642;SDS011;8435;52.184;5.406;2022-10-13T05:01:19;10.67;;;9.57;;
16642;SDS011;8435;52.184;5.406;2022-10-13T05:03:49;11.73;;;9.60;;
16642;SDS011;8435;52.184;5.406;2022-10-13T05:06:18;12.33;;;9.37;;
16642;SDS011;8435;52.184;5.406;2022-10-13T05:08:49;11.30;;;9.40;;
16642;SDS011;8435;52.184;5.406;2022-10-13T05:11:17;10.07;;;9.07;;
16642;SDS011;8435;52.184;5.406;2022-10-13T05:14:02;10.70;;;9.23;;
16642;SDS011;8435;52.184;5.406;2022-10-13T05:16:35;10.73;;;9.30;;
16642;SDS011;8435;52.184;5.406;2022-10-13T05:19:08;13.77;;;10.23;;
16642;SDS011;8435;52.184;5.406;2022-10-13T05:21:38;11.13;;;9.53;;
16642;SDS011;8435;52.184;5.406;2022-10-13T05:24:05;10.37;;;8.87;;
16642;SDS011;8435;52.184;5.406;2022-10-13T05:26:37;11.10;;;9.27;;
16642;SDS011;8435;52.184;5.406;2022-10-13T05:29:08;13.40;;;9.30;;
16642;SDS011;8435;52.184;5.406;2022-10-13T05:31:35;10.63;;;9.57;;
16642;SDS011;8435;52.184;5.406;2022-10-13T05:34:05;11.87;;;10.03;;
16642;SDS011;8435;52.184;5.406;2022-10-13T05:36:32;12.23;;;9.83;;
16642;SDS011;8435;52.184;5.406;2022-10-13T05:39:03;12.27;;;10.67;;
16642;SDS011;8435;52.184;5.406;2022-10-13T05:41:35;15.53;;;11.47;;
16642;SDS011;8435;52.184;5.406;2022-10-13T05:44:05;14.13;;;10.80;;
16642;SDS011;8435;52.184;5.406;2022-10-13T05:46:35;13.37;;;11.10;;
16642;SDS011;8435;52.184;5.406;2022-10-13T05:49:02;13.57;;;10.43;;
16642;SDS011;8435;52.184;5.406;2022-10-13T05:51:30;11.33;;;9.70;;
16642;SDS011;8435;52.184;5.406;2022-10-13T05:53:59;12.03;;;9.50;;
16642;SDS011;8435;52.184;5.406;2022-10-13T05:56:31;10.73;;;9.50;;
16642;SDS011;8435;52.184;5.406;2022-10-13T05:59:03;11.90;;;9.93;;
16642;SDS011;8435;52.184;5.406;2022-10-13T06:01:35;11.83;;;10.27;;
16642;SDS011;8435;52.184;5.406;2022-10-13T06:04:05;13.63;;;10.57;;
16642;SDS011;8435;52.184;5.406;2022-10-13T06:06:36;11.57;;;9.53;;
16642;SDS011;8435;52.184;5.406;2022-10-13T06:09:04;10.60;;;9.50;;
16642;SDS011;8435;52.184;5.406;2022-10-13T06:11:31;11.53;;;9.60;;
16642;SDS011;8435;52.184;5.406;2022-10-13T06:13:58;12.27;;;10.17;;
16642;SDS011;8435;52.184;5.406;2022-10-13T06:16:25;12.90;;;10.10;;
16642;SDS011;8435;52.184;5.406;2022-10-13T06:18:53;12.17;;;10.60;;
16642;SDS011;8435;52.184;5.406;2022-10-13T06:21:19;14.50;;;10.30;;
16642;SDS011;8435;52.184;5.406;2022-10-13T06:23:46;11.87;;;9.57;;
16642;SDS011;8435;52.184;5.406;2022-10-13T06:26:13;12.50;;;10.57;;
16642;SDS011;8435;52.184;5.406;2022-10-13T06:28:40;13.87;;;9.87;;
16642;SDS011;8435;52.184;5.406;2022-10-13T06:31:10;12.40;;;9.90;;
16642;SDS011;8435;52.184;5.406;2022-10-13T06:33:38;13.83;;;10.47;;
16642;SDS011;8435;52.184;5.406;2022-10-13T06:36:07;14.27;;;10.20;;
16642;SDS011;8435;52.184;5.406;2022-10-13T06:38:34;12.57;;;10.47;;
16642;SDS011;8435;52.184;5.406;2022-10-13T06:41:01;12.93;;;10.17;;
16642;SDS011;8435;52.184;5.406;2022-10-13T06:43:28;14.20;;;10.27;;
16642;SDS011;8435;52.184;5.406;2022-10-13T06:45:56;11.67;;;10.13;;
16642;SDS011;8435;52.184;5.406;2022-10-13T06:48:24;13.60;;;10.53;;
16642;SDS011;8435;52.184;5.406;2022-10-13T06:50:51;11.63;;;10.43;;
16642;SDS011;8435;52.184;5.406;2022-10-13T06:53:20;11.57;;;10.20;;
16642;SDS011;8435;52.184;5.406;2022-10-13T06:55:46;13.43;;;10.80;;
16642;SDS011;8435;52.184;5.406;2022-10-13T06:58:13;14.27;;;10.33;;
16642;SDS011;8435;52.184;5.406;2022-10-13T07:00:40;12.27;;;10.73;;
16642;SDS011;8435;52.184;5.406;2022-10-13T07:03:09;11.63;;;10.43;;
16642;SDS011;8435;52.184;5.406;2022-10-13T07:05:36;12.03;;;10.67;;
16642;SDS011;8435;52.184;5.406;2022-10-13T07:08:03;11.10;;;9.63;;
16642;SDS011;8435;52.184;5.406;2022-10-13T07:10:31;12.17;;;10.90;;
16642;SDS011;8435;52.184;5.406;2022-10-13T07:12:58;12.43;;;10.47;;
16642;SDS011;8435;52.184;5.406;2022-10-13T07:15:25;14.33;;;10.50;;
16642;SDS011;8435;52.184;5.406;2022-10-13T07:17:52;14.53;;;10.23;;
16642;SDS011;8435;52.184;5.406;2022-10-13T07:20:19;11.93;;;10.47;;
16642;SDS011;8435;52.184;5.406;2022-10-13T07:22:46;13.13;;;10.70;;
16642;SDS011;8435;52.184;5.406;2022-10-13T07:25:13;13.43;;;11.23;;
16642;SDS011;8435;52.184;5.406;2022-10-13T07:27:42;13.13;;;10.60;;
16642;SDS011;8435;52.184;5.406;2022-10-13T07:30:09;14.47;;;11.87;;
16642;SDS011;8435;52.184;5.406;2022-10-13T07:32:37;12.87;;;10.83;;
16642;SDS011;8435;52.184;5.406;2022-10-13T07:35:06;16.73;;;12.93;;
16642;SDS011;8435;52.184;5.406;2022-10-13T07:37:33;13.27;;;11.53;;
16642;SDS011;8435;52.184;5.406;2022-10-13T07:40:01;12.77;;;11.23;;
16642;SDS011;8435;52.184;5.406;2022-10-13T07:42:28;13.27;;;11.03;;
16642;SDS011;8435;52.184;5.406;2022-10-13T07:44:56;13.03;;;11.63;;
16642;SDS011;8435;52.184;5.406;2022-10-13T07:47:23;13.03;;;11.67;;
16642;SDS011;8435;52.184;5.406;2022-10-13T07:49:53;13.17;;;11.27;;
16642;SDS011;8435;52.184;5.406;2022-10-13T07:52:19;13.93;;;12.07;;
16642;SDS011;8435;52.184;5.406;2022-10-13T07:54:46;16.83;;;13.23;;
16642;SDS011;8435;52.184;5.406;2022-10-13T07:57:13;14.60;;;12.60;;
16642;SDS011;8435;52.184;5.406;2022-10-13T07:59:40;13.53;;;12.20;;
16642;SDS011;8435;52.184;5.406;2022-10-13T08:02:08;16.90;;;13.93;;
16642;SDS011;8435;52.184;5.406;2022-10-13T08:04:38;18.27;;;13.50;;
16642;SDS011;8435;52.184;5.406;2022-10-13T08:07:05;16.73;;;14.80;;
16642;SDS011;8435;52.184;5.406;2022-10-13T08:09:35;16.63;;;14.63;;
16642;SDS011;8435;52.184;5.406;2022-10-13T08:12:03;17.53;;;15.60;;
16642;SDS011;8435;52.184;5.406;2022-10-13T08:14:31;21.83;;;16.40;;
16642;SDS011;8435;52.184;5.406;2022-10-13T08:16:58;17.47;;;15.57;;
16642;SDS011;8435;52.184;5.406;2022-10-13T08:19:26;16.10;;;14.47;;
16642;SDS011;8435;52.184;5.406;2022-10-13T08:21:54;20.20;;;16.30;;
16642;SDS011;8435;52.184;5.406;2022-10-13T08:24:20;17.07;;;13.97;;
16642;SDS011;8435;52.184;5.406;2022-10-13T08:26:47;16.53;;;14.83;;
16642;SDS011;8435;52.184;5.406;2022-10-13T08:29:14;16.67;;;14.93;;
16642;SDS011;8435;52.184;5.406;2022-10-13T08:31:42;18.23;;;14.03;;
16642;SDS011;8435;52.184;5.406;2022-10-13T08:34:09;15.67;;;13.93;;
16642;SDS011;8435;52.184;5.406;2022-10-13T08:36:38;15.40;;;13.80;;
16642;SDS011;8435;52.184;5.406;2022-10-13T08:39:05;14.27;;;12.87;;
16642;SDS011;8435;52.184;5.406;2022-10-13T08:41:35;16.07;;;14.13;;
16642;SDS011;8435;52.184;5.406;2022-10-13T08:44:04;12.73;;;11.30;;
16642;SDS011;8435;52.184;5.406;2022-10-13T08:46:36;13.53;;;12.13;;
16642;SDS011;8435;52.184;5.406;2022-10-13T08:49:08;14.60;;;12.57;;
16642;SDS011;8435;52.184;5.406;2022-10-13T08:51:36;13.97;;;12.40;;
16642;SDS011;8435;52.184;5.406;2022-10-13T08:54:06;13.20;;;11.90;;
16642;SDS011;8435;52.184;5.406;2022-10-13T08:56:33;13.40;;;11.97;;
16642;SDS011;8435;52.184;5.406;2022-10-13T08:59:01;12.63;;;11.27;;
16642;SDS011;8435;52.184;5.406;2022-10-13T09:01:31;11.90;;;10.70;;
16642;SDS011;8435;52.184;5.406;2022-10-13T09:04:05;12.93;;;11.73;;
16642;SDS011;8435;52.184;5.406;2022-10-13T09:06:45;12.53;;;11.07;;
16642;SDS011;8435;52.184;5.406;2022-10-13T09:09:18;13.13;;;11.73;;
16642;SDS011;8435;52.184;5.406;2022-10-13T09:11:45;13.30;;;12.00;;
16642;SDS011;8435;52.184;5.406;2022-10-13T09:14:18;13.97;;;11.27;;
16642;SDS011;8435;52.184;5.406;2022-10-13T09:16:47;13.40;;;12.07;;
16642;SDS011;8435;52.184;5.406;2022-10-13T09:19:22;14.80;;;12.67;;
16642;SDS011;8435;52.184;5.406;2022-10-13T09:21:52;13.90;;;12.43;;
16642;SDS011;8435;52.184;5.406;2022-10-13T09:24:22;13.13;;;11.87;;
16642;SDS011;8435;52.184;5.406;2022-10-13T09:27:00;14.63;;;13.17;;
16642;SDS011;8435;52.184;5.406;2022-10-13T09:29:30;14.07;;;12.67;;
16642;SDS011;8435;52.184;5.406;2022-10-13T09:32:08;13.60;;;12.30;;
16642;SDS011;8435;52.184;5.406;2022-10-13T09:34:40;15.60;;;13.50;;
16642;SDS011;8435;52.184;5.406;2022-10-13T09:37:15;13.80;;;12.50;;
16642;SDS011;8435;52.184;5.406;2022-10-13T09:39:45;13.93;;;12.63;;
16642;SDS011;8435;52.184;5.406;2022-10-13T09:42:17;15.10;;;13.57;;
16642;SDS011;8435;52.184;5.406;2022-10-13T09:44:46;14.60;;;13.13;;
16642;SDS011;8435;52.184;5.406;2022-10-13T09:47:21;15.33;;;13.03;;
16642;SDS011;8435;52.184;5.406;2022-10-13T09:49:58;14.60;;;13.17;;
16642;SDS011;8435;52.184;5.406;2022-10-13T09:52:27;15.93;;;13.97;;
16642;SDS011;8435;52.184;5.406;2022-10-13T09:54:57;15.53;;;14.00;;
16642;SDS011;8435;52.184;5.406;2022-10-13T09:57:30;17.03;;;15.27;;
16642;SDS011;8435;52.184;5.406;2022-10-13T10:00:05;15.60;;;13.40;;
16642;SDS011;8435;52.184;5.406;2022-10-13T10:02:39;12.63;;;11.53;;
16642;SDS011;8435;52.184;5.406;2022-10-13T10:05:14;14.73;;;12.60;;
16642;SDS011;8435;52.184;5.406;2022-10-13T10:07:48;15.80;;;13.73;;
16642;SDS011;8435;52.184;5.406;2022-10-13T10:10:21;13.33;;;11.87;;
16642;SDS011;8435;52.184;5.406;2022-10-13T10:12:57;12.40;;;11.20;;
16642;SDS011;8435;52.184;5.406;2022-10-13T10:15:25;11.80;;;10.57;;
16642;SDS011;8435;52.184;5.406;2022-10-13T10:17:58;11.40;;;10.07;;
16642;SDS011;8435;52.184;5.406;2022-10-13T10:20:34;10.50;;;9.37;;
16642;SDS011;8435;52.184;5.406;2022-10-13T10:23:10;11.50;;;9.47;;
16642;SDS011;8435;52.184;5.406;2022-10-13T10:25:41;10.03;;;8.93;;
16642;SDS011;8435;52.184;5.406;2022-10-13T10:28:26;10.57;;;9.43;;
16642;SDS011;8435;52.184;5.406;2022-10-13T10:31:05;9.87;;;8.77;;
16642;SDS011;8435;52.184;5.406;2022-10-13T10:33:43;10.33;;;9.23;;
16642;SDS011;8435;52.184;5.406;2022-10-13T10:36:20;9.53;;;8.63;;
16642;SDS011;8435;52.184;5.406;2022-10-13T10:38:51;11.30;;;9.07;;
16642;SDS011;8435;52.184;5.406;2022-10-13T10:41:25;9.40;;;8.43;;
16642;SDS011;8435;52.184;5.406;2022-10-13T10:44:04;12.53;;;9.73;;
16642;SDS011;8435;52.184;5.406;2022-10-13T10:46:38;10.57;;;9.03;;
16642;SDS011;8435;52.184;5.406;2022-10-13T10:49:11;10.90;;;8.67;;
16642;SDS011;8435;52.184;5.406;2022-10-13T10:51:40;11.00;;;8.80;;
16642;SDS011;8435;52.184;5.406;2022-10-13T10:54:16;9.40;;;8.40;;
16642;SDS011;8435;52.184;5.406;2022-10-13T10:56:52;9.20;;;8.13;;
16642;SDS011;8435;52.184;5.406;2022-10-13T10:59:36;10.43;;;8.83;;
16642;SDS011;8435;52.184;5.406;2022-10-13T11:02:15;11.87;;;8.87;;
16642;SDS011;8435;52.184;5.406;2022-10-13T11:04:59;9.23;;;7.83;;
16642;SDS011;8435;52.184;5.406;2022-10-13T11:10:25;9.53;;;8.00;;
16642;SDS011;8435;52.184;5.406;2022-10-13T11:13:11;11.00;;;8.30;;
16642;SDS011;8435;52.184;5.406;2022-10-13T11:15:42;9.77;;;7.73;;
16642;SDS011;8435;52.184;5.406;2022-10-13T11:24:52;10.00;;;6.32;;
16642;SDS011;8435;52.184;5.406;2022-10-13T11:27:27;7.75;;;6.63;;
16642;SDS011;8435;52.184;5.406;2022-10-13T11:30:37;9.03;;;6.03;;
16642;SDS011;8435;52.184;5.406;2022-10-13T11:33:32;9.23;;;5.88;;
16642;SDS011;8435;52.184;5.406;2022-10-13T11:42:34;8.97;;;5.80;;
16642;SDS011;8435;52.184;5.406;2022-10-13T11:45:14;12.38;;;7.32;;
16642;SDS011;8435;52.184;5.406;2022-10-13T11:47:57;10.05;;;7.50;;
16642;SDS011;8435;52.184;5.406;2022-10-13T11:50:46;8.53;;;7.33;;
16642;SDS011;8435;52.184;5.406;2022-10-13T11:53:26;7.13;;;6.43;;
16642;SDS011;8435;52.184;5.406;2022-10-13T11:55:59;8.63;;;7.67;;
16642;SDS011;8435;52.184;5.406;2022-10-13T11:58:26;10.40;;;9.37;;
16642;SDS011;8435;52.184;5.406;2022-10-13T12:00:57;10.30;;;9.20;;
16642;SDS011;8435;52.184;5.406;2022-10-13T12:03:25;11.30;;;10.10;;
16642;SDS011;8435;52.184;5.406;2022-10-13T12:05:54;11.77;;;10.60;;
16642;SDS011;8435;52.184;5.406;2022-10-13T12:08:24;13.00;;;11.33;;
16642;SDS011;8435;52.184;5.406;2022-10-13T12:10:52;13.03;;;11.73;;
16642;SDS011;8435;52.184;5.406;2022-10-13T12:13:22;13.90;;;12.03;;
16642;SDS011;8435;52.184;5.406;2022-10-13T12:15:56;14.33;;;12.87;;
16642;SDS011;8435;52.184;5.406;2022-10-13T12:18:25;16.87;;;14.70;;
16642;SDS011;8435;52.184;5.406;2022-10-13T12:20:54;15.30;;;13.70;;
16642;SDS011;8435;52.184;5.406;2022-10-13T12:23:22;14.77;;;13.27;;
16642;SDS011;8435;52.184;5.406;2022-10-13T12:25:49;14.18;;;12.73;;
16642;SDS011;8435;52.184;5.406;2022-10-13T12:28:22;14.80;;;13.10;;
16642;SDS011;8435;52.184;5.406;2022-10-13T12:30:50;17.50;;;14.30;;
16642;SDS011;8435;52.184;5.406;2022-10-13T12:33:21;15.10;;;13.53;;
16642;SDS011;8435;52.184;5.406;2022-10-13T12:35:52;14.57;;;13.13;;
16642;SDS011;8435;52.184;5.406;2022-10-13T12:38:19;17.20;;;12.23;;
16642;SDS011;8435;52.184;5.406;2022-10-13T12:40:47;15.10;;;13.03;;
16642;SDS011;8435;52.184;5.406;2022-10-13T12:43:17;15.80;;;13.00;;
16642;SDS011;8435;52.184;5.406;2022-10-13T12:45:49;14.47;;;12.10;;
16642;SDS011;8435;52.184;5.406;2022-10-13T12:51:15;13.27;;;11.20;;
16642;SDS011;8435;52.184;5.406;2022-10-13T12:53:47;15.10;;;12.27;;
16642;SDS011;8435;52.184;5.406;2022-10-13T12:58:50;13.33;;;11.93;;
16642;SDS011;8435;52.184;5.406;2022-10-13T13:01:24;13.37;;;12.03;;
16642;SDS011;8435;52.184;5.406;2022-10-13T13:03:56;14.77;;;12.93;;
16642;SDS011;8435;52.184;5.406;2022-10-13T13:06:29;16.53;;;13.73;;
16642;SDS011;8435;52.184;5.406;2022-10-13T13:11:47;14.27;;;12.73;;
16642;SDS011;8435;52.184;5.406;2022-10-13T13:14:22;13.50;;;12.03;;
16642;SDS011;8435;52.184;5.406;2022-10-13T13:17:00;12.97;;;11.47;;
16642;SDS011;8435;52.184;5.406;2022-10-13T13:19:31;12.50;;;11.23;;
16642;SDS011;8435;52.184;5.406;2022-10-13T13:21:58;13.30;;;12.00;;
16642;SDS011;8435;52.184;5.406;2022-10-13T13:24:25;11.97;;;10.73;;
16642;SDS011;8435;52.184;5.406;2022-10-13T13:26:51;14.20;;;12.00;;
16642;SDS011;8435;52.184;5.406;2022-10-13T13:29:18;12.93;;;11.43;;
16642;SDS011;8435;52.184;5.406;2022-10-13T13:31:45;12.33;;;11.13;;
16642;SDS011;8435;52.184;5.406;2022-10-13T13:34:18;12.10;;;10.80;;
16642;SDS011;8435;52.184;5.406;2022-10-13T13:36:46;11.73;;;10.23;;
16642;SDS011;8435;52.184;5.406;2022-10-13T13:39:15;13.83;;;10.43;;
16642;SDS011;8435;52.184;5.406;2022-10-13T13:41:42;14.83;;;10.83;;
16642;SDS011;8435;52.184;5.406;2022-10-13T13:44:11;10.93;;;9.70;;
16642;SDS011;8435;52.184;5.406;2022-10-13T13:46:37;11.83;;;10.17;;
16642;SDS011;8435;52.184;5.406;2022-10-13T13:49:06;12.70;;;10.93;;
16642;SDS011;8435;52.184;5.406;2022-10-13T13:51:34;11.80;;;10.70;;
16642;SDS011;8435;52.184;5.406;2022-10-13T13:54:02;11.70;;;10.30;;
16642;SDS011;8435;52.184;5.406;2022-10-13T13:56:29;12.27;;;10.90;;
16642;SDS011;8435;52.184;5.406;2022-10-13T13:58:55;12.73;;;11.23;;
16642;SDS011;8435;52.184;5.406;2022-10-13T14:01:22;13.17;;;11.67;;
16642;SDS011;8435;52.184;5.406;2022-10-13T14:03:49;11.93;;;10.67;;
16642;SDS011;8435;52.184;5.406;2022-10-13T14:06:17;15.67;;;11.10;;
16642;SDS011;8435;52.184;5.406;2022-10-13T14:08:44;12.23;;;10.60;;
16642;SDS011;8435;52.184;5.406;2022-10-13T14:11:12;11.37;;;10.17;;
16642;SDS011;8435;52.184;5.406;2022-10-13T14:13:39;12.00;;;10.83;;
16642;SDS011;8435;52.184;5.406;2022-10-13T14:16:06;14.80;;;11.00;;
16642;SDS011;8435;52.184;5.406;2022-10-13T14:18:37;12.20;;;10.93;;
16642;SDS011;8435;52.184;5.406;2022-10-13T14:21:06;14.40;;;11.70;;
16642;SDS011;8435;52.184;5.406;2022-10-13T14:23:33;12.67;;;11.03;;
16642;SDS011;8435;52.184;5.406;2022-10-13T14:26:03;12.67;;;11.37;;
16642;SDS011;8435;52.184;5.406;2022-10-13T14:28:32;11.80;;;10.60;;
16642;SDS011;8435;52.184;5.406;2022-10-13T14:31:02;14.43;;;11.47;;
16642;SDS011;8435;52.184;5.406;2022-10-13T14:33:30;13.30;;;11.97;;
16642;SDS011;8435;52.184;5.406;2022-10-13T14:36:02;13.23;;;11.83;;
16642;SDS011;8435;52.184;5.406;2022-10-13T14:38:33;12.67;;;11.33;;
16642;SDS011;8435;52.184;5.406;2022-10-13T14:41:01;13.60;;;11.57;;
16642;SDS011;8435;52.184;5.406;2022-10-13T14:43:29;13.53;;;12.13;;
16642;SDS011;8435;52.184;5.406;2022-10-13T14:46:01;12.70;;;11.40;;
16642;SDS011;8435;52.184;5.406;2022-10-13T14:48:29;13.30;;;11.93;;
16642;SDS011;8435;52.184;5.406;2022-10-13T14:50:56;12.83;;;11.60;;
16642;SDS011;8435;52.184;5.406;2022-10-13T14:53:23;13.70;;;11.70;;
16642;SDS011;8435;52.184;5.406;2022-10-13T14:55:50;12.70;;;11.40;;
16642;SDS011;8435;52.184;5.406;2022-10-13T14:58:17;13.40;;;12.00;;
16642;SDS011;8435;52.184;5.406;2022-10-13T15:00:44;13.00;;;11.63;;
16642;SDS011;8435;52.184;5.406;2022-10-13T15:03:12;13.13;;;11.80;;
16642;SDS011;8435;52.184;5.406;2022-10-13T15:05:39;12.73;;;11.40;;
16642;SDS011;8435;52.184;5.406;2022-10-13T15:08:06;12.43;;;11.13;;
16642;SDS011;8435;52.184;5.406;2022-10-13T15:10:35;12.73;;;11.43;;
16642;SDS011;8435;52.184;5.406;2022-10-13T15:13:02;12.53;;;11.37;;
16642;SDS011;8435;52.184;5.406;2022-10-13T15:15:29;12.93;;;11.63;;
16642;SDS011;8435;52.184;5.406;2022-10-13T15:17:56;12.27;;;10.77;;
16642;SDS011;8435;52.184;5.406;2022-10-13T15:20:24;12.30;;;11.10;;
16642;SDS011;8435;52.184;5.406;2022-10-13T15:22:51;13.37;;;12.00;;
16642;SDS011;8435;52.184;5.406;2022-10-13T15:25:18;11.80;;;10.73;;
16642;SDS011;8435;52.184;5.406;2022-10-13T15:27:45;12.93;;;11.63;;
16642;SDS011;8435;52.184;5.406;2022-10-13T15:30:12;12.07;;;10.80;;
16642;SDS011;8435;52.184;5.406;2022-10-13T15:32:39;12.97;;;11.77;;
16642;SDS011;8435;52.184;5.406;2022-10-13T15:35:06;12.60;;;11.40;;